createdAt,value
2019-01-27T00:01:14.149Z,5.30
2019-01-27T00:03:43.335Z,5.30
2019-01-27T00:06:12.572Z,5.30
2019-01-27T00:08:41.751Z,5.30
2019-01-27T00:11:10.961Z,5.30
2019-01-27T00:13:40.176Z,5.30
2019-01-27T00:16:09.576Z,5.30
2019-01-27T00:18:38.874Z,5.30
2019-01-27T00:21:08.163Z,5.30
2019-01-27T00:23:37.367Z,5.30
2019-01-27T00:26:06.584Z,5.40
2019-01-27T00:28:35.772Z,5.40
2019-01-27T00:31:04.973Z,5.40
2019-01-27T00:33:34.184Z,5.40
2019-01-27T00:36:03.418Z,5.40
2019-01-27T00:38:32.603Z,5.40
2019-01-27T00:41:01.768Z,5.40
2019-01-27T00:43:30.980Z,5.40
2019-01-27T00:46:00.179Z,5.40
2019-01-27T00:48:29.397Z,5.40
2019-01-27T00:50:58.611Z,5.40
2019-01-27T00:53:27.842Z,5.40
2019-01-27T00:55:57.071Z,5.40
2019-01-27T00:58:26.277Z,5.40
2019-01-27T01:00:55.512Z,5.40
2019-01-27T01:03:24.704Z,5.50
2019-01-27T01:05:53.920Z,5.50
2019-01-27T01:08:23.208Z,5.50
2019-01-27T01:10:52.431Z,5.50
2019-01-27T01:13:21.636Z,5.50
2019-01-27T01:15:50.919Z,5.50
2019-01-27T01:18:20.104Z,5.50
2019-01-27T01:20:49.331Z,5.50
2019-01-27T01:23:18.607Z,5.50
2019-01-27T01:25:47.841Z,5.50
2019-01-27T01:28:17.047Z,5.50
2019-01-27T01:30:46.254Z,5.50
2019-01-27T01:33:15.460Z,5.50
2019-01-27T01:35:44.673Z,5.50
2019-01-27T01:38:13.863Z,5.50
2019-01-27T01:40:43.072Z,5.50
2019-01-27T01:43:12.275Z,5.50
2019-01-27T01:45:41.498Z,5.50
2019-01-27T01:48:10.729Z,5.50
2019-01-27T01:50:39.916Z,5.50
2019-01-27T01:53:09.115Z,5.50
2019-01-27T01:55:38.349Z,5.50
2019-01-27T01:58:07.581Z,5.50
2019-01-27T02:00:36.968Z,5.50
2019-01-27T02:03:06.179Z,5.50
2019-01-27T02:05:35.371Z,5.50
2019-01-27T02:08:04.908Z,5.50
2019-01-27T02:10:34.117Z,5.50
2019-01-27T02:13:03.296Z,5.50
2019-01-27T02:16:01.982Z,5.50
2019-01-27T02:18:31.223Z,5.50
2019-01-27T02:21:00.868Z,5.40
2019-01-27T02:23:30.065Z,5.40
2019-01-27T02:25:59.263Z,5.40
2019-01-27T02:28:28.464Z,5.40
2019-01-27T02:30:57.775Z,5.40
2019-01-27T02:33:26.972Z,5.40
2019-01-27T02:35:56.213Z,5.40
2019-01-27T02:38:25.427Z,5.40
2019-01-27T02:40:54.644Z,5.40
2019-01-27T02:43:23.852Z,5.30
2019-01-27T02:45:53.068Z,5.30
2019-01-27T02:48:22.356Z,5.30
2019-01-27T02:50:51.599Z,5.30
2019-01-27T02:53:20.783Z,5.30
2019-01-27T02:55:50.016Z,5.30
2019-01-27T02:58:19.229Z,5.30
2019-01-27T03:00:48.467Z,5.30
2019-01-27T03:03:17.708Z,5.30
2019-01-27T03:06:09.032Z,5.30
2019-01-27T03:08:42.800Z,5.20
2019-01-27T03:11:12.013Z,5.20
2019-01-27T03:13:41.222Z,5.20
2019-01-27T03:16:11.172Z,5.20
2019-01-27T03:18:40.403Z,5.20
2019-01-27T03:21:09.608Z,5.20
2019-01-27T03:23:38.808Z,5.20
2019-01-27T03:26:08.032Z,5.20
2019-01-27T03:28:37.264Z,5.20
2019-01-27T03:31:06.555Z,5.20
2019-01-27T03:33:35.794Z,5.20
2019-01-27T03:36:05.195Z,5.20
2019-01-27T03:38:34.508Z,5.20
2019-01-27T03:41:03.836Z,5.20
2019-01-27T03:43:33.063Z,5.20
2019-01-27T03:46:02.278Z,5.20
2019-01-27T03:48:31.490Z,5.20
2019-01-27T03:51:00.696Z,5.20
2019-01-27T03:53:29.960Z,5.10
2019-01-27T03:55:59.195Z,5.10
2019-01-27T03:58:47.526Z,5.10
2019-01-27T04:01:16.718Z,5.10
2019-01-27T04:03:45.958Z,5.10
2019-01-27T04:06:15.166Z,5.10
2019-01-27T04:08:44.409Z,5.10
2019-01-27T04:11:13.623Z,5.00
2019-01-27T04:13:42.832Z,5.00
2019-01-27T04:16:12.050Z,5.00
2019-01-27T04:18:41.295Z,5.00
2019-01-27T04:21:10.601Z,5.00
2019-01-27T04:23:39.830Z,5.00
2019-01-27T04:26:09.035Z,5.00
2019-01-27T04:28:38.278Z,5.00
2019-01-27T04:31:07.480Z,5.00
2019-01-27T04:33:37.776Z,5.00
2019-01-27T04:36:07.216Z,5.00
2019-01-27T04:38:36.433Z,5.00
2019-01-27T04:41:05.660Z,5.00
2019-01-27T04:43:34.857Z,5.00
2019-01-27T04:46:04.319Z,4.90
2019-01-27T04:48:33.502Z,5.00
2019-01-27T04:51:02.731Z,5.00
2019-01-27T04:53:31.920Z,5.00
2019-01-27T04:56:01.180Z,5.00
2019-01-27T04:58:30.380Z,4.90
2019-01-27T05:00:59.672Z,4.90
2019-01-27T05:03:43.716Z,4.90
2019-01-27T05:06:12.934Z,4.90
2019-01-27T05:08:42.143Z,4.90
2019-01-27T05:11:11.445Z,4.90
2019-01-27T05:13:40.628Z,4.90
2019-01-27T05:16:09.937Z,4.90
2019-01-27T05:18:39.220Z,4.90
2019-01-27T05:21:08.520Z,4.90
2019-01-27T05:23:37.732Z,4.90
2019-01-27T05:26:06.990Z,4.90
2019-01-27T05:28:36.195Z,4.90
2019-01-27T05:31:05.544Z,4.90
2019-01-27T05:33:34.760Z,4.90
2019-01-27T05:36:04.132Z,4.90
2019-01-27T05:38:33.327Z,4.90
2019-01-27T05:41:02.561Z,4.90
2019-01-27T05:43:31.757Z,4.90
2019-01-27T05:46:00.992Z,4.90
2019-01-27T05:48:30.188Z,4.90
2019-01-27T05:50:59.490Z,4.90
2019-01-27T05:53:28.692Z,4.90
2019-01-27T05:55:57.936Z,4.90
2019-01-27T05:58:27.139Z,5.00
2019-01-27T06:00:56.436Z,5.00
2019-01-27T06:03:25.653Z,5.00
2019-01-27T06:05:54.953Z,5.00
2019-01-27T06:08:24.173Z,5.00
2019-01-27T06:10:53.400Z,5.00
2019-01-27T06:13:22.709Z,5.00
2019-01-27T06:15:51.901Z,5.00
2019-01-27T06:18:21.132Z,5.00
2019-01-27T06:20:50.411Z,5.00
2019-01-27T06:23:19.632Z,5.00
2019-01-27T06:25:48.841Z,5.10
2019-01-27T06:28:18.078Z,5.10
2019-01-27T06:30:47.304Z,5.10
2019-01-27T06:33:30.978Z,5.10
2019-01-27T06:36:00.172Z,5.10
2019-01-27T06:38:29.394Z,5.10
2019-01-27T06:40:58.600Z,5.10
2019-01-27T06:43:27.832Z,5.10
2019-01-27T06:45:57.180Z,5.10
2019-01-27T06:48:26.412Z,5.10
2019-01-27T06:50:55.621Z,5.10
2019-01-27T06:53:24.885Z,5.10
2019-01-27T06:55:54.125Z,5.10
2019-01-27T06:58:25.870Z,5.10
2019-01-27T07:01:07.305Z,5.00
2019-01-27T07:04:04.516Z,5.00
2019-01-27T07:07:00.041Z,5.00
2019-01-27T07:09:48.160Z,5.00
2019-01-27T07:12:29.600Z,5.00
2019-01-27T07:15:16.800Z,5.00
2019-01-27T07:18:08.264Z,5.00
2019-01-27T07:21:11.810Z,5.00
2019-01-27T07:23:58.556Z,5.00
2019-01-27T07:26:46.829Z,5.00
2019-01-27T07:29:35.004Z,5.00
2019-01-27T07:32:26.097Z,5.10
2019-01-27T07:35:13.258Z,5.10
2019-01-27T07:37:46.597Z,5.10
2019-01-27T07:40:24.184Z,5.10
2019-01-27T07:43:05.732Z,5.10
2019-01-27T07:46:09.341Z,5.10
2019-01-27T07:48:46.002Z,5.10
2019-01-27T07:51:36.968Z,5.20
2019-01-27T07:54:32.450Z,5.20
2019-01-27T07:57:24.124Z,5.20
2019-01-27T08:00:07.248Z,5.20
2019-01-27T08:03:12.155Z,5.30
2019-01-27T08:05:51.757Z,5.30
2019-01-27T08:08:32.544Z,5.40
2019-01-27T08:11:09.643Z,5.40
2019-01-27T08:13:56.500Z,5.40
2019-01-27T08:16:34.068Z,5.40
2019-01-27T08:19:37.479Z,5.50
2019-01-27T08:22:28.109Z,5.50
2019-01-27T08:25:24.529Z,5.50
2019-01-27T08:28:21.933Z,5.50
2019-01-27T08:31:28.355Z,5.50
2019-01-27T08:34:22.659Z,5.50
2019-01-27T08:37:14.744Z,5.50
2019-01-27T08:39:55.452Z,5.50
2019-01-27T08:42:52.236Z,5.50
2019-01-27T08:45:34.641Z,5.50
2019-01-27T08:48:03.920Z,5.50
2019-01-27T08:50:33.148Z,5.50
2019-01-27T08:53:02.365Z,5.50
2019-01-27T08:55:31.636Z,5.60
2019-01-27T08:58:00.875Z,5.60
2019-01-27T09:00:52.160Z,5.60
2019-01-27T09:03:40.457Z,5.70
2019-01-27T09:06:27.512Z,5.70
2019-01-27T09:09:10.723Z,5.70
2019-01-27T09:11:48.676Z,5.70
2019-01-27T09:14:46.001Z,5.80
2019-01-27T09:17:32.906Z,5.80
2019-01-27T09:20:13.980Z,5.80
2019-01-27T09:23:08.193Z,5.80
2019-01-27T09:25:52.797Z,5.80
2019-01-27T09:28:35.159Z,5.80
2019-01-27T09:31:24.976Z,5.90
2019-01-27T09:34:13.226Z,5.90
2019-01-27T09:36:53.092Z,5.90
2019-01-27T09:39:44.377Z,5.90
2019-01-27T09:42:31.240Z,6.00
2019-01-27T09:45:08.872Z,6.00
2019-01-27T09:48:12.276Z,6.10
2019-01-27T09:50:59.561Z,6.20
2019-01-27T09:53:36.999Z,6.30
2019-01-27T09:56:13.304Z,6.40
2019-01-27T09:59:09.544Z,6.50
2019-01-27T10:01:57.831Z,6.50
2019-01-27T10:04:41.381Z,6.60
2019-01-27T10:07:38.457Z,6.80
2019-01-27T10:10:23.113Z,6.90
2019-01-27T10:13:05.333Z,6.90
2019-01-27T10:15:52.317Z,6.90
2019-01-27T10:18:36.933Z,6.90
2019-01-27T10:21:28.132Z,6.80
2019-01-27T10:24:13.750Z,6.70
2019-01-27T10:27:01.161Z,6.70
2019-01-27T10:29:52.441Z,6.60
2019-01-27T10:32:39.344Z,6.40
2019-01-27T10:35:16.047Z,6.30
2019-01-27T10:38:07.477Z,6.30
2019-01-27T10:40:40.880Z,6.20
2019-01-27T10:43:44.325Z,6.20
2019-01-27T10:46:38.653Z,6.20
2019-01-27T10:49:35.936Z,6.20
2019-01-27T10:52:23.283Z,6.20
2019-01-27T10:55:10.393Z,6.10
2019-01-27T10:57:48.793Z,6.10
2019-01-27T11:00:37.400Z,6.10
2019-01-27T11:03:34.848Z,6.10
2019-01-27T11:06:41.561Z,6.10
2019-01-27T11:09:32.729Z,6.10
2019-01-27T11:12:39.295Z,6.10
2019-01-27T11:15:27.585Z,6.10
2019-01-27T11:18:18.605Z,6.10
2019-01-27T11:21:05.481Z,6.10
2019-01-27T11:24:04.444Z,6.10
2019-01-27T11:26:55.490Z,6.10
2019-01-27T11:29:46.581Z,6.20
2019-01-27T11:32:40.680Z,6.20
2019-01-27T11:35:22.640Z,6.20
2019-01-27T11:38:10.896Z,6.20
2019-01-27T11:40:48.793Z,6.30
2019-01-27T11:43:30.229Z,6.30
2019-01-27T11:46:21.696Z,6.40
2019-01-27T11:49:09.977Z,6.40
2019-01-27T11:51:52.410Z,6.40
2019-01-27T11:54:21.640Z,6.50
2019-01-27T11:56:50.868Z,6.50
2019-01-27T11:59:20.084Z,6.40
2019-01-27T12:01:49.364Z,6.50
2019-01-27T12:04:18.588Z,6.50
2019-01-27T12:06:47.811Z,6.50
2019-01-27T12:09:17.104Z,6.50
2019-01-27T12:11:46.330Z,6.50
2019-01-27T12:14:15.644Z,6.50
2019-01-27T12:16:44.847Z,6.50
2019-01-27T12:19:14.073Z,6.60
2019-01-27T12:21:43.274Z,6.60
2019-01-27T12:24:12.607Z,6.60
2019-01-27T12:26:41.827Z,6.60
2019-01-27T12:29:11.006Z,6.60
2019-01-27T12:31:40.256Z,6.70
2019-01-27T12:34:09.549Z,6.80
2019-01-27T12:36:38.775Z,6.80
2019-01-27T12:39:09.685Z,6.90
2019-01-27T12:41:38.960Z,6.90
2019-01-27T12:44:08.254Z,7.00
2019-01-27T12:46:37.469Z,6.90
2019-01-27T12:49:06.761Z,6.90
2019-01-27T12:51:35.997Z,6.90
2019-01-27T12:54:05.381Z,6.90
2019-01-27T12:56:34.721Z,6.80
2019-01-27T12:59:04.181Z,6.80
2019-01-27T13:01:33.448Z,6.70
2019-01-27T13:04:03.009Z,6.70
2019-01-27T13:06:32.233Z,6.70
2019-01-27T13:09:01.453Z,6.70
2019-01-27T13:11:30.681Z,6.60
2019-01-27T13:13:59.967Z,6.70
2019-01-27T13:16:29.204Z,6.60
2019-01-27T13:18:58.387Z,6.60
2019-01-27T13:21:27.619Z,6.60
2019-01-27T13:23:56.906Z,6.60
2019-01-27T13:26:26.219Z,6.60
2019-01-27T13:28:55.427Z,6.60
2019-01-27T13:31:24.636Z,6.60
2019-01-27T13:33:53.856Z,6.60
2019-01-27T13:36:23.096Z,6.60
2019-01-27T13:38:52.294Z,6.50
2019-01-27T13:41:21.612Z,6.50
2019-01-27T13:43:50.808Z,6.50
2019-01-27T13:46:19.999Z,6.50
2019-01-27T13:48:49.209Z,6.50
2019-01-27T13:51:18.579Z,6.50
2019-01-27T13:53:47.781Z,6.50
2019-01-27T13:56:17.044Z,6.50
2019-01-27T13:58:46.285Z,6.50
2019-01-27T14:01:15.588Z,6.50
2019-01-27T14:03:44.857Z,6.40
2019-01-27T14:06:14.408Z,6.40
2019-01-27T14:08:43.701Z,6.40
2019-01-27T14:11:13.225Z,6.40
2019-01-27T14:13:42.391Z,6.40
2019-01-27T14:16:11.624Z,6.40
2019-01-27T14:18:40.921Z,6.40
2019-01-27T14:21:16.525Z,6.40
2019-01-27T14:23:41.169Z,6.40
2019-01-27T14:26:10.385Z,6.40
2019-01-27T14:28:40.060Z,6.30
2019-01-27T14:31:09.796Z,6.40
2019-01-27T14:33:39.173Z,6.40
2019-01-27T14:36:08.730Z,6.40
2019-01-27T14:38:38.165Z,6.40
2019-01-27T14:41:07.980Z,6.40
2019-01-27T14:43:37.642Z,6.40
2019-01-27T14:46:09.317Z,6.40
2019-01-27T14:48:38.945Z,6.40
2019-01-27T14:51:08.372Z,6.40
2019-01-27T14:53:37.688Z,6.40
2019-01-27T14:56:07.077Z,6.40
2019-01-27T14:58:36.293Z,6.40
2019-01-27T15:01:05.568Z,6.40
2019-01-27T15:03:34.817Z,6.40
2019-01-27T15:06:04.432Z,6.40
2019-01-27T15:08:33.728Z,6.40
2019-01-27T15:11:02.927Z,6.40
2019-01-27T15:13:32.143Z,6.40
2019-01-27T15:16:01.408Z,6.40
2019-01-27T15:18:30.633Z,6.40
2019-01-27T15:21:04.173Z,6.40
2019-01-27T15:23:33.401Z,6.30
2019-01-27T15:26:02.579Z,6.30
2019-01-27T15:28:31.824Z,6.30
2019-01-27T15:31:01.112Z,6.30
2019-01-27T15:33:30.328Z,6.30
2019-01-27T15:35:59.557Z,6.30
2019-01-27T15:38:28.797Z,6.30
2019-01-27T15:40:58.004Z,6.30
2019-01-27T15:43:27.252Z,6.30
2019-01-27T15:45:56.433Z,6.30
2019-01-27T15:48:25.651Z,6.30
2019-01-27T15:50:54.862Z,6.30
2019-01-27T15:53:24.107Z,6.20
2019-01-27T15:55:53.331Z,6.20
2019-01-27T15:58:22.642Z,6.20
2019-01-27T16:00:51.903Z,6.20
2019-01-27T16:03:21.245Z,6.20
2019-01-27T16:05:50.539Z,6.20
2019-01-27T16:08:19.747Z,6.20
2019-01-27T16:10:48.961Z,6.20
2019-01-27T16:13:18.196Z,6.20
2019-01-27T16:15:47.428Z,6.20
2019-01-27T16:18:16.881Z,6.20
2019-01-27T16:20:46.088Z,6.20
2019-01-27T16:23:37.195Z,6.20
2019-01-27T16:26:06.472Z,6.20
2019-01-27T16:28:35.691Z,6.20
2019-01-27T16:31:36.436Z,6.20
2019-01-27T16:34:13.865Z,6.20
2019-01-27T16:36:43.061Z,6.10
2019-01-27T16:39:13.828Z,6.10
2019-01-27T16:41:43.120Z,6.20
2019-01-27T16:44:12.756Z,6.10
2019-01-27T16:46:42.052Z,6.10
2019-01-27T16:49:11.280Z,6.10
2019-01-27T16:51:40.478Z,6.10
2019-01-27T16:54:09.792Z,6.10
2019-01-27T16:56:39.064Z,6.10
2019-01-27T16:59:08.285Z,6.10
2019-01-27T17:01:37.501Z,6.10
2019-01-27T17:04:06.723Z,6.10
2019-01-27T17:06:36.025Z,6.10
2019-01-27T17:09:09.221Z,6.10
2019-01-27T17:11:38.792Z,6.10
2019-01-27T17:14:08.103Z,6.00
2019-01-27T17:16:37.456Z,6.00
2019-01-27T17:19:06.705Z,6.00
2019-01-27T17:21:35.901Z,6.00
2019-01-27T17:24:05.528Z,6.00
2019-01-27T17:26:34.880Z,6.00
2019-01-27T17:29:04.577Z,6.00
2019-01-27T17:31:33.774Z,6.00
2019-01-27T17:34:03.084Z,5.90
2019-01-27T17:36:32.306Z,5.90
2019-01-27T17:39:01.552Z,5.90
2019-01-27T17:41:30.774Z,6.00
2019-01-27T17:44:00.131Z,6.00
2019-01-27T17:46:29.336Z,6.00
2019-01-27T17:48:58.565Z,6.00
2019-01-27T17:51:27.768Z,6.00
2019-01-27T17:54:00.511Z,5.90
2019-01-27T17:56:29.778Z,5.90
2019-01-27T17:59:30.284Z,5.90
2019-01-27T18:02:18.561Z,5.90
2019-01-27T18:05:05.704Z,5.90
2019-01-27T18:07:57.012Z,5.80
2019-01-27T18:10:49.641Z,5.80
2019-01-27T18:13:26.272Z,5.80
2019-01-27T18:15:55.585Z,5.80
2019-01-27T18:18:24.780Z,5.80
2019-01-27T18:20:54.022Z,5.80
2019-01-27T18:23:23.234Z,5.80
2019-01-27T18:25:52.428Z,5.80
2019-01-27T18:28:21.664Z,5.80
2019-01-27T18:30:50.963Z,5.80
2019-01-27T18:33:20.393Z,5.80
2019-01-27T18:35:49.640Z,5.80
2019-01-27T18:38:18.865Z,5.80
2019-01-27T18:40:48.066Z,5.80
2019-01-27T18:43:17.300Z,5.80
2019-01-27T18:45:47.427Z,5.80
2019-01-27T18:48:17.194Z,5.80
2019-01-27T18:50:46.500Z,5.80
2019-01-27T18:53:43.996Z,5.80
2019-01-27T18:56:28.313Z,5.80
2019-01-27T18:59:22.676Z,5.80
2019-01-27T19:02:16.944Z,5.80
2019-01-27T19:05:09.680Z,5.80
2019-01-27T19:07:48.140Z,5.80
2019-01-27T19:10:39.240Z,5.80
2019-01-27T19:13:20.729Z,5.80
2019-01-27T19:15:59.095Z,5.80
2019-01-27T19:18:46.001Z,5.80
2019-01-27T19:21:40.352Z,5.80
2019-01-27T19:24:28.665Z,5.70
2019-01-27T19:27:20.512Z,5.70
2019-01-27T19:30:11.845Z,5.70
2019-01-27T19:33:00.193Z,5.70
2019-01-27T19:36:00.878Z,5.70
2019-01-27T19:38:48.551Z,5.70
2019-01-27T19:41:27.124Z,5.70
2019-01-27T19:44:19.432Z,5.60
2019-01-27T19:47:06.300Z,5.60
2019-01-27T19:50:00.501Z,5.60
2019-01-27T19:52:57.579Z,5.60
2019-01-27T19:55:58.189Z,5.60
2019-01-27T19:59:01.821Z,5.50
2019-01-27T20:01:48.626Z,5.50
2019-01-27T20:04:31.743Z,5.50
2019-01-27T20:07:16.503Z,5.50
2019-01-27T20:10:09.620Z,5.50
2019-01-27T20:13:13.278Z,5.40
2019-01-27T20:16:04.415Z,5.40
2019-01-27T20:18:46.540Z,5.40
2019-01-27T20:21:33.108Z,5.40
2019-01-27T20:24:10.181Z,5.40
2019-01-27T20:27:03.152Z,5.30
2019-01-27T20:29:44.000Z,5.30
2019-01-27T20:32:44.361Z,5.30
2019-01-27T20:35:38.565Z,5.30
2019-01-27T20:38:35.690Z,5.30
2019-01-27T20:41:22.536Z,5.30
2019-01-27T20:44:07.906Z,5.20
2019-01-27T20:46:59.065Z,5.20
2019-01-27T20:49:46.663Z,5.20
2019-01-27T20:52:24.641Z,5.20
2019-01-27T20:55:19.211Z,5.10
2019-01-27T20:58:13.690Z,5.10
2019-01-27T21:01:01.336Z,5.10
2019-01-27T21:03:40.642Z,5.10
2019-01-27T21:06:28.896Z,5.00
2019-01-27T21:09:24.582Z,5.00
2019-01-27T21:12:21.953Z,5.00
2019-01-27T21:15:06.623Z,5.00
2019-01-27T21:17:46.649Z,4.90
2019-01-27T21:20:18.790Z,4.90
2019-01-27T21:22:48.003Z,4.90
2019-01-27T21:25:17.253Z,4.80
2019-01-27T21:27:46.456Z,4.80
2019-01-27T21:30:16.888Z,4.80
2019-01-27T21:32:46.109Z,4.80
2019-01-27T21:35:15.320Z,4.80
2019-01-27T21:37:44.520Z,4.70
2019-01-27T21:40:19.193Z,4.70
2019-01-27T21:42:48.377Z,4.60
2019-01-27T21:45:17.840Z,4.60
2019-01-27T21:47:47.051Z,4.60
2019-01-27T21:50:18.019Z,4.50
2019-01-27T21:52:47.220Z,4.50
2019-01-27T21:55:16.466Z,4.50
2019-01-27T21:57:45.684Z,4.40
2019-01-27T22:00:18.500Z,4.40
2019-01-27T22:02:47.700Z,4.40
2019-01-27T22:05:16.937Z,4.30
2019-01-27T22:07:46.149Z,4.30
2019-01-27T22:10:15.453Z,4.20
2019-01-27T22:12:44.704Z,4.20
2019-01-27T22:15:14.061Z,4.20
2019-01-27T22:17:43.254Z,4.10
2019-01-27T22:20:14.602Z,4.00
2019-01-27T22:22:43.963Z,4.00
2019-01-27T22:25:14.132Z,3.90
2019-01-27T22:27:43.365Z,3.90
2019-01-27T22:30:15.527Z,3.80
2019-01-27T22:32:44.729Z,3.80
2019-01-27T22:35:13.957Z,3.80
2019-01-27T22:37:43.255Z,3.90
2019-01-27T22:40:13.626Z,3.90
2019-01-27T22:42:42.868Z,3.90
2019-01-27T22:45:13.076Z,3.90
2019-01-27T22:47:42.284Z,4.00
2019-01-27T22:50:14.428Z,4.00
2019-01-27T22:52:43.673Z,4.00
2019-01-27T22:55:13.024Z,4.00
2019-01-27T22:57:42.257Z,4.00
2019-01-27T23:00:34.984Z,4.00
2019-01-27T23:03:05.104Z,4.00
2019-01-27T23:05:34.300Z,4.00
2019-01-27T23:08:03.591Z,4.00
2019-01-27T23:10:32.785Z,4.00
2019-01-27T23:13:02.037Z,4.00
2019-01-27T23:15:31.224Z,3.90
2019-01-27T23:18:00.456Z,4.00
2019-01-27T23:20:29.659Z,4.00
2019-01-27T23:22:58.860Z,4.00
2019-01-27T23:25:28.099Z,4.00
2019-01-27T23:27:57.284Z,4.00
2019-01-27T23:30:26.493Z,4.00
2019-01-27T23:32:55.720Z,4.00
2019-01-27T23:35:24.925Z,4.00
2019-01-27T23:37:54.141Z,4.00
2019-01-27T23:40:23.438Z,3.90
2019-01-27T23:42:52.634Z,3.90
2019-01-27T23:45:21.876Z,3.90
2019-01-27T23:47:51.064Z,3.90
2019-01-27T23:50:20.282Z,3.80
2019-01-27T23:52:49.513Z,3.80
2019-01-27T23:55:18.749Z,3.80
2019-01-27T23:57:48.008Z,3.70
